WEATHER DATA

YESTERDAY
Time Temp. Dewp. Hum. Wind dir Wind speed Wind gust Bar.
00:03 12.7 10.2 85 231 1.4 2.8 1022.8
00:13 12.6 10.3 86 227 1.7 2.8 1022.9
00:24 12.4 10.1 86 231 1.4 2.5 1022.9
00:33 12.3 10 86 233 1.4 2.5 1023
00:43 12.2 9.9 86 231 1.7 2.8 1022.9
00:53 12 9.7 86 232 1.4 2.8 1022.9
01:04 11.9 9.6 86 234 1.7 2.5 1022.9
01:14 11.8 9.7 87 231 1.4 1.9 1023.1
01:24 11.7 9.6 87 230 1.7 2.5 1023
01:34 11.6 9.5 87 238 1.4 2.5 1023.2
01:44 11.6 9.5 87 215 1.1 1.7 1023.1
01:54 11.6 9.5 87 227 0.6 1.4 1023
02:04 11.6 9.5 87 228 0.3 1.1 1022.8
02:15 11.6 9.7 88 270 0.3 1.1 1022.8
02:24 11.6 9.7 88 215 0.6 1.4 1022.7
02:34 11.7 9.8 88 222 0.6 1.7 1022.5
02:45 11.7 9.8 88 225 0.6 1.4 1022.4
02:55 11.8 9.9 88 225 1.9 3.1 1022.3
03:05 11.8 9.9 88 226 1.9 3.3 1022.3
03:14 11.8 9.9 88 232 1.7 2.8 1022.2
03:25 11.6 9.7 88 232 1.1 1.7 1022.2
03:35 11.4 9.5 88 251 0.6 1.7 1022.1
03:45 11.3 9.4 88 228 0.3 1.1 1022
03:55 11.2 9.3 88 229 0.3 1.4 1022
04:05 11.1 9.2 88 231 0.6 1.7 1021.9
04:15 11.1 9.4 89 236 0.6 1.4 1021.9
04:25 11.1 9.4 89 234 1.1 1.7 1022
04:36 11.2 9.5 89 239 1.1 1.7 1021.9
04:46 11.2 9.5 89 242 1.1 1.7 1021.8
04:56 11.2 9.5 89 237 0.6 1.7 1021.8
05:06 11.1 9.4 89 236 0.6 1.4 1021.5
05:16 11.1 9.4 89 233 0.6 1.4 1021.7
05:26 11.1 9.4 89 244 0.6 1.7 1021.7
05:36 11.1 9.4 89 237 0.3 1.4 1021.7
05:47 11 9.3 89 231 0.3 1.1 1021.5
05:56 11 9.3 89 236 0.6 1.4 1021.4
06:06 10.9 9.2 89 235 0.6 1.7 1021.2
06:16 11 9.3 89 262 1.1 2.5 1021.3
06:27 11 9.3 89 245 1.1 2.5 1021.2
06:37 11 9.3 89 242 0.6 1.7 1021.2
06:47 10.9 9.2 89 248 0.6 1.4 1021
06:57 10.9 9.2 89 234 1.4 2.5 1020.9
07:07 11 9.3 89 227 3.3 4.4 1020.8
07:17 11.1 9.4 89 228 3.3 4.7 1020.8
07:27 11.3 9.7 90 231 4.7 6.7 1020.8
07:38 11.4 9.7 89 231 5 6.4 1020.5
07:48 11.5 9.8 89 230 4.2 5 1020.9
07:57 11.6 9.9 89 231 5 6.4 1020.7
08:07 11.9 10.3 90 233 7.8 11.9 1020.8
08:17 12.2 10.6 90 247 4.7 9.2 1020.8
08:28 12.4 10.6 89 238 6.4 14.7 1020.8
08:38 12.7 10.9 89 234 8.1 13.6 1020.8
08:48 13 11.2 89 247 5.6 9.4 1020.7
08:59 13.4 11.5 88 241 5 9.4 1020.8
09:09 13.9 11.9 88 257 6.1 11.1 1020.7
09:18 14.3 12.2 87 267 6.1 12.2 1020.9
09:31 14.5 12.2 86 138 3.3 9.7 1020.7
09:41 14.8 12.5 86 165 6.1 10.3 1020.8
09:51 15.3 13 86 193 6.4 10.6 1020.5
10:01 15.8 13.3 85 194 6.1 9.2 1020.8
10:22 16.7 13.8 83 202 5.8 9.7 1020.7
10:32 17.1 13.6 80 255 5.8 8.6 1020.7
10:41 17.4 13.9 80 244 5.8 8.9 1020.5
10:52 17.9 14.2 79 246 7.2 9.2 1020.5
11:02 18.3 14.6 79 248 5.8 7.5 1020.3
11:12 18.7 14.6 77 246 6.7 9.7 1020.3
11:22 18.7 14.6 77 285 1.7 3.3 1020.5
11:41 19.3 15.2 77 255 2.5 7.5 1020.1
11:51 19.8 15.5 76 238 6.7 11.1 1020.2
12:01 19.9 15.1 74 241 1.9 3.6 1020.3
12:11 20 14.8 72 303 1.1 2.5 1020.2
12:21 20.1 14.9 72 293 1.4 3.1 1020.2
12:31 19.7 14.3 71 282 1.7 4.2 1020.1
12:42 19.5 14.5 73 259 1.1 2.8 1020.1
13:01 19.6 14.6 73 270 1.1 2.8 1020
13:09 19.9 15.1 74 291 1.4 5.6 1019.8
13:19 20.1 14.7 71 236 2.5 4.2 1020
13:29 20 14.6 71 288 1.1 2.8 1019.9
13:34 20.3 15.1 72 309 1.9 5.8 1019.9
13:44 20.6 14.9 70 233 6.1 10.3 1019.8
13:54 20.5 15.1 71 239 1.4 2.8 1019.6
14:05 20.5 14.8 70 239 1.7 3.1 1019.4
14:14 20.4 14.8 70 298 1.7 4.4 1019.3
14:24 20.5 14.6 69 297 1.4 3.3 1019.3
14:35 20.1 14.2 69 303 1.4 3.1 1019.1
14:45 19.8 14 69 294 1.7 6.4 1019.3
14:55 19.6 14 70 302 1.7 4.4 1019.4
15:05 19.5 13.9 70 294 1.1 2.5 1019.3
15:15 19.4 13.8 70 315 0.6 1.7 1019.3
15:25 19.1 13.7 71 253 1.1 2.5 1019.4
15:35 18.9 13.7 72 248 1.1 1.9 1019.7
15:45 18.5 14 75 255 1.4 3.6 1019.6
15:56 17.9 13.8 77 282 1.4 3.1 1019.9
16:05 17.3 13.4 78 245 1.9 3.6 1019.9
16:15 16.9 13 78 251 1.7 4.2 1019.8
16:26 16.7 12.8 78 257 1.7 4.2 1019.9
16:36 16.2 12.9 81 248 1.7 4.2 1020.1
16:46 15.6 12.5 82 237 1.7 3.1 1020.1
16:56 15.4 12.7 84 240 1.4 3.1 1020.1
17:06 15.5 13 85 226 1.1 2.8 1020.2
17:16 15.8 13.3 85 228 4.7 6.1 1020.2
17:26 16 13.5 85 229 6.1 7.5 1020.1
17:37 16.1 13.6 85 230 3.6 5.6 1020.1
17:47 16.1 13.4 84 240 0.3 1.4 1020
17:56 16.1 13.4 84 237 0.3 1.1 1020
18:06 16 13.5 85 292 1.1 3.1 1020.4
18:17 15.8 12.9 83 270 1.4 3.3 1020.5
18:27 15.5 12.4 82 297 1.4 3.3 1020.8
18:37 14.9 11.9 82 278 1.1 2.8 1021
18:47 14.5 11.8 84 235 1.4 1.9 1020.9
18:57 14.3 11.8 85 236 1.1 3.1 1021.1
19:07 14.3 12 86 232 1.1 2.5 1021.1
19:17 14.3 12 86 230 1.7 2.8 1021.1
19:28 14.2 11.9 86 227 2.5 3.3 1021.4
19:37 14.1 11.8 86 226 2.5 3.1 1021.2
19:47 13.9 11.8 87 225 2.5 3.3 1021.2
19:57 13.6 11.5 87 230 1.9 3.3 1021.3
20:08 13.4 11.5 88 228 1.9 3.1 1021.4
20:18 13.3 11.4 88 227 1.9 3.1 1021.2
20:27 13.2 11.3 88 231 1.7 3.1 1021.3
20:38 13.1 11.3 89 224 1.9 3.1 1021.8
20:48 13 11.2 89 234 1.7 3.1 1021.8
20:58 13.1 11.3 89 225 1.7 2.5 1021.9
21:08 13.1 11.3 89 228 1.4 2.5 1021.8
21:18 13.1 11.3 89 225 1.4 1.9 1021.9
21:28 13.1 11.3 89 229 1.1 1.7 1022.1
21:38 13.1 11.3 89 227 1.4 1.9 1021.8
21:49 13 11.2 89 218 0.6 1.9 1021.7
21:59 13 11.2 89 231 0.6 1.7 1021.8
22:08 12.9 11.1 89 233 1.1 1.7 1021.5
22:18 12.9 11.1 89 234 0.6 1.4 1021.7
22:29 12.9 11.1 89 231 0.6 1.4 1021.4
22:39 12.9 11.1 89 222 0.6 1.4 1021.5
22:49 12.9 11.1 89 219 0.6 1.1 1021.5
22:59 12.8 11 89 231 0.3 1.1 1021.4
23:09 12.8 11 89 270 0.3 1.1 1021.5
23:19 12.8 11 89 270 0.3 0.6 1021.7
23:29 12.7 10.9 89 234 0.3 1.1 1021.8
23:40 12.7 10.9 89 218 0.3 0.6 1021.7
23:50 12.7 10.9 89 230 0.3 0.6 1021.7

DAY STATISTIC

2021-08-03
TEMPERATURE
AVERAGE
14.4
HIGH
20.6
13:44
LOW
10.9
06:06
PRESSURE
AVERAGE
1021.1
HIGH
1023.2
01:34
LOW
1019.1
14:35
DEWPOINT
AVERAGE
11.7
HIGH
15.5
11:51
LOW
9.2
04:05
HUMIDITY
AVERAGE
84
HIGH
90
07:27
LOW
69
14:24
WIND SPEED
AVERAGE
2.1
HIGH
8.1
08:38
WIND GUST
AVERAGE
3.8
HIGH
14.7
08:28
WIND DIRECTION
PREVAILING
SW
69.3%
N
0.0
NE
0.0
E
0.0
SE
0.7
S
2.9
SW
69.3
W
19.3
NW
7.9
TEMPERATURE (°C)
LOW
10.9
HIGH
20.6
AVERAGE
14.4
PRESSURE (hpa)
LOW
1019.1
HIGH
1023.2
AVERAGE
1021.1
DEVICE